• Join FlightAware (Why Join?)
  • Login
  • US Flag 
08:44PM EDT


 

Airport Tracker/Info


-or-


 

Live Flight TrackerFlight Track Log ✈ CSH9415 ✈ 11-Jan-2014 ✈ ZSSS / SHA - ZSLG / LYG

Flight Track Log - Related Links

Times and Time Zones

All times are in EST time to prevent confusion due to time zone crossing. See the CSH9415 flight status page for this flight to view local times or setup timezone preferences in your user account.

Time Position Orientation Groundspeed Altitude Reporting Facility
EST Latitude Longitude Course Direction KTS MPH feet Rate Location/Type
08:35PM 31.6364 121.0285 329° Northwest  Level Estimated
08:36PM 31.6911 120.9898 329° Northwest  Level Estimated
08:37PM 31.7459 120.9511 329° Northwest  Level Estimated
08:38PM 31.8006 120.9123 329° Northwest  Level Estimated
08:39PM 31.8553 120.8735 329° Northwest  Level Estimated
08:40PM 31.9100 120.8346 329° Northwest  Level Estimated
08:41PM 31.9647 120.7957 329° Northwest  Level Estimated
08:42PM 32.0194 120.7568 329° Northwest  Level Estimated
08:43PM 32.0741 120.7178 329° Northwest  Level Estimated
08:44PM 32.1287 120.6787 329° Northwest  Level Estimated
08:45PM 32.1834 120.6396 329° Northwest  Level Estimated
08:46PM 32.2380 120.6004 329° Northwest  Level Estimated
08:47PM 32.2927 120.5613 329° Northwest  Level Estimated
08:48PM 32.3473 120.5220 329° Northwest  Level Estimated
08:49PM 32.4019 120.4827 329° Northwest  Level Estimated
08:50PM 32.4565 120.4434 329° Northwest  Level Estimated
08:51PM 32.5111 120.4040 329° Northwest  Level Estimated
08:52PM 32.5656 120.3646 329° Northwest  Level Estimated
08:53PM 32.6202 120.3251 329° Northwest  Level Estimated
08:54PM 32.6747 120.2856 329° Northwest  Level Estimated
08:55PM 32.7292 120.2460 329° Northwest  Level Estimated
08:56PM 32.7838 120.2064 329° Northwest  Level Estimated
08:57PM 32.8383 120.1667 329° Northwest  Level Estimated
08:58PM 32.8927 120.1270 329° Northwest  Level Estimated
08:59PM 32.9472 120.0872 329° Northwest  Level Estimated
09:00PM 33.0017 120.0474 328° Northwest  Level Estimated
09:01PM 33.0561 120.0075 328° Northwest  Level Estimated
09:02PM 33.1106 119.9676 328° Northwest  Level Estimated
09:03PM 33.1650 119.9277 328° Northwest  Level Estimated
09:04PM 33.2194 119.8876 328° Northwest  Level Estimated
09:05PM 33.2738 119.8476 328° Northwest  Level Estimated
09:06PM 33.3282 119.8074 328° Northwest  Level Estimated
09:07PM 33.3826 119.7673 328° Northwest  Level Estimated
09:08PM 33.4370 119.7271 328° Northwest  Level Estimated
09:09PM 33.4913 119.6868 328° Northwest  Level Estimated
09:10PM 33.5457 119.6465 328° Northwest  Level Estimated
09:11PM 33.6000 119.6061 328° Northwest  Level Estimated
09:12PM 33.6543 119.5657 328° Northwest  Level Estimated
09:13PM 33.7086 119.5252 328° Northwest  Level Estimated
09:14PM 33.7629 119.4847 328° Northwest  Level Estimated
09:15PM 33.8172 119.4441 328° Northwest  Level Estimated
09:16PM 33.8714 119.4035 328° Northwest  Level Estimated
09:17PM 33.9257 119.3628 328° Northwest  Level Estimated
09:18PM 33.9799 119.3221 328° Northwest  Level Estimated
09:19PM 34.0341 119.2813 328° Northwest  Level Estimated
09:20PM 34.0883 119.2405 328° Northwest  Level Estimated
09:21PM 34.1425 119.1996 328° Northwest  Level Estimated
09:22PM 34.1967 119.1587 328° Northwest  Level Estimated
09:23PM 34.2509 119.1177 328° Northwest  Level Estimated
09:24PM 34.3050 119.0766 328° Northwest  Level Estimated
09:25PM 34.3591 119.0355 328° Northwest  Level Estimated